sensor_id;sensor_type;location;lat;lon;timestamp;pressure;altitude;pressure_sealevel;temperature;humidity
60974;BME280;46846;51.528;5.076;2024-02-21T00:00:35;101702.25;;;6.36;96.72
60974;BME280;46846;51.528;5.076;2024-02-21T00:03:03;101704.00;;;6.34;96.38
60974;BME280;46846;51.528;5.076;2024-02-21T00:05:29;101697.84;;;6.35;96.88
60974;BME280;46846;51.528;5.076;2024-02-21T00:07:54;101704.03;;;6.31;96.45
60974;BME280;46846;51.528;5.076;2024-02-21T00:10:19;101699.63;;;6.33;96.71
60974;BME280;46846;51.528;5.076;2024-02-21T00:12:45;101697.84;;;6.32;96.72
60974;BME280;46846;51.528;5.076;2024-02-21T00:15:10;101693.44;;;6.34;96.58
60974;BME280;46846;51.528;5.076;2024-02-21T00:17:36;101693.41;;;6.39;96.50
60974;BME280;46846;51.528;5.076;2024-02-21T00:20:01;101692.53;;;6.41;95.93
60974;BME280;46846;51.528;5.076;2024-02-21T00:22:26;101684.63;;;6.38;96.20
60974;BME280;46846;51.528;5.076;2024-02-21T00:24:54;101681.09;;;6.39;96.23
60974;BME280;46846;51.528;5.076;2024-02-21T00:27:19;101675.81;;;6.33;96.71
60974;BME280;46846;51.528;5.076;2024-02-21T00:29:44;101675.81;;;6.38;96.21
60974;BME280;46846;51.528;5.076;2024-02-21T00:32:09;101671.41;;;6.35;96.53
60974;BME280;46846;51.528;5.076;2024-02-21T00:34:35;101664.34;;;6.34;96.48
60974;BME280;46846;51.528;5.076;2024-02-21T00:37:00;101662.59;;;6.33;95.99
60974;BME280;46846;51.528;5.076;2024-02-21T00:39:26;101651.16;;;6.34;96.63
60974;BME280;46846;51.528;5.076;2024-02-21T00:41:51;101641.47;;;6.33;96.43
60974;BME280;46846;51.528;5.076;2024-02-21T00:44:16;101642.34;;;6.31;96.95
60974;BME280;46846;51.528;5.076;2024-02-21T00:46:41;101645.88;;;6.33;96.56
60974;BME280;46846;51.528;5.076;2024-02-21T00:49:07;101646.78;;;6.30;96.63
60974;BME280;46846;51.528;5.076;2024-02-21T00:51:32;101647.63;;;6.31;96.23
60974;BME280;46846;51.528;5.076;2024-02-21T00:53:57;101638.84;;;6.25;97.06
60974;BME280;46846;51.528;5.076;2024-02-21T00:56:22;101640.59;;;6.25;96.55
60974;BME280;46846;51.528;5.076;2024-02-21T00:58:48;101640.59;;;6.25;96.93
60974;BME280;46846;51.528;5.076;2024-02-21T01:01:13;101637.94;;;6.28;96.59
60974;BME280;46846;51.528;5.076;2024-02-21T01:03:45;101634.44;;;6.26;96.67
60974;BME280;46846;51.528;5.076;2024-02-21T01:06:10;101608.88;;;6.28;96.50
60974;BME280;46846;51.528;5.076;2024-02-21T01:08:36;101605.38;;;6.26;96.33
60974;BME280;46846;51.528;5.076;2024-02-21T01:11:01;101601.00;;;6.22;97.12
60974;BME280;46846;51.528;5.076;2024-02-21T01:13:26;101602.72;;;6.24;96.91
60974;BME280;46846;51.528;5.076;2024-02-21T01:15:51;101610.66;;;6.21;96.81
60974;BME280;46846;51.528;5.076;2024-02-21T01:18:17;101598.34;;;6.22;96.78
60974;BME280;46846;51.528;5.076;2024-02-21T01:20:42;101607.13;;;6.21;96.88
60974;BME280;46846;51.528;5.076;2024-02-21T01:23:07;101600.13;;;6.17;96.79
60974;BME280;46846;51.528;5.076;2024-02-21T01:25:33;101593.94;;;6.19;96.85
60974;BME280;46846;51.528;5.076;2024-02-21T01:27:58;101604.50;;;6.18;97.09
60974;BME280;46846;51.528;5.076;2024-02-21T01:30:23;101586.00;;;6.22;96.63
60974;BME280;46846;51.528;5.076;2024-02-21T01:32:49;101586.91;;;6.18;97.21
60974;BME280;46846;51.528;5.076;2024-02-21T01:35:14;101585.13;;;6.20;96.93
60974;BME280;46846;51.528;5.076;2024-02-21T01:37:39;101589.56;;;6.18;96.71
60974;BME280;46846;51.528;5.076;2024-02-21T01:40:05;101585.13;;;6.17;96.83
60974;BME280;46846;51.528;5.076;2024-02-21T01:42:30;101578.97;;;6.20;96.82
60974;BME280;46846;51.528;5.076;2024-02-21T01:44:55;101590.41;;;6.19;96.80
60974;BME280;46846;51.528;5.076;2024-02-21T01:47:21;101588.63;;;6.21;96.38
60974;BME280;46846;51.528;5.076;2024-02-21T01:49:46;101609.81;;;6.19;96.96
60974;BME280;46846;51.528;5.076;2024-02-21T01:52:11;101598.34;;;6.20;96.65
60974;BME280;46846;51.528;5.076;2024-02-21T01:54:39;101593.91;;;6.21;96.51
60974;BME280;46846;51.528;5.076;2024-02-21T01:57:04;101588.66;;;6.19;96.47
60974;BME280;46846;51.528;5.076;2024-02-21T01:59:30;101581.59;;;6.20;96.52
60974;BME280;46846;51.528;5.076;2024-02-21T02:01:55;101573.66;;;6.21;96.64
60974;BME280;46846;51.528;5.076;2024-02-21T02:04:22;101569.31;;;6.15;96.63
60974;BME280;46846;51.528;5.076;2024-02-21T02:06:47;101564.91;;;6.14;96.78
60974;BME280;46846;51.528;5.076;2024-02-21T02:09:13;101564.88;;;6.16;96.92
60974;BME280;46846;51.528;5.076;2024-02-21T02:11:39;101575.44;;;6.18;96.25
60974;BME280;46846;51.528;5.076;2024-02-21T02:14:04;101568.38;;;6.23;96.54
60974;BME280;46846;51.528;5.076;2024-02-21T02:16:29;101566.63;;;6.19;96.70
60974;BME280;46846;51.528;5.076;2024-02-21T02:18:55;101564.88;;;6.19;96.51
60974;BME280;46846;51.528;5.076;2024-02-21T02:21:26;101553.44;;;6.15;96.92
60974;BME280;46846;51.528;5.076;2024-02-21T02:23:52;101546.41;;;6.14;96.78
60974;BME280;46846;51.528;5.076;2024-02-21T02:26:17;101538.47;;;6.14;96.98
60974;BME280;46846;51.528;5.076;2024-02-21T02:28:43;101532.31;;;6.14;96.77
60974;BME280;46846;51.528;5.076;2024-02-21T02:31:08;101524.38;;;6.12;96.34
60974;BME280;46846;51.528;5.076;2024-02-21T02:33:33;101534.09;;;6.12;96.87
60974;BME280;46846;51.528;5.076;2024-02-21T02:35:59;101543.75;;;6.14;96.97
60974;BME280;46846;51.528;5.076;2024-02-21T02:38:24;101544.63;;;6.15;96.37
60974;BME280;46846;51.528;5.076;2024-02-21T02:40:49;101538.47;;;6.14;96.95
60974;BME280;46846;51.528;5.076;2024-02-21T02:43:14;101533.19;;;6.14;96.61
60974;BME280;46846;51.528;5.076;2024-02-21T02:45:40;101527.88;;;6.16;96.80
60974;BME280;46846;51.528;5.076;2024-02-21T02:48:05;101523.47;;;6.17;96.70
60974;BME280;46846;51.528;5.076;2024-02-21T02:50:31;101521.72;;;6.14;96.40
60974;BME280;46846;51.528;5.076;2024-02-21T02:52:56;101522.63;;;6.14;96.79
60974;BME280;46846;51.528;5.076;2024-02-21T02:55:22;101507.63;;;6.13;96.33
60974;BME280;46846;51.528;5.076;2024-02-21T02:57:47;101514.69;;;6.11;96.57
60974;BME280;46846;51.528;5.076;2024-02-21T03:00:13;101513.81;;;6.15;96.29
60974;BME280;46846;51.528;5.076;2024-02-21T03:02:39;101521.72;;;6.12;96.94
60974;BME280;46846;51.528;5.076;2024-02-21T03:05:11;101519.13;;;6.09;96.94
60974;BME280;46846;51.528;5.076;2024-02-21T03:07:36;101512.97;;;6.07;96.69
60974;BME280;46846;51.528;5.076;2024-02-21T03:10:02;101506.75;;;6.11;96.81
60974;BME280;46846;51.528;5.076;2024-02-21T03:12:27;101504.13;;;6.11;96.66
60974;BME280;46846;51.528;5.076;2024-02-21T03:14:54;101499.69;;;6.13;96.70
60974;BME280;46846;51.528;5.076;2024-02-21T03:17:19;101493.56;;;6.11;96.26
60974;BME280;46846;51.528;5.076;2024-02-21T03:19:44;101496.19;;;6.10;96.63
60974;BME280;46846;51.528;5.076;2024-02-21T03:22:10;101486.53;;;6.12;96.50
60974;BME280;46846;51.528;5.076;2024-02-21T03:24:35;101481.22;;;6.12;96.96
60974;BME280;46846;51.528;5.076;2024-02-21T03:27:00;101475.06;;;6.11;96.48
60974;BME280;46846;51.528;5.076;2024-02-21T03:29:26;101472.41;;;6.11;96.32
60974;BME280;46846;51.528;5.076;2024-02-21T03:31:51;101468.91;;;6.11;96.64
60974;BME280;46846;51.528;5.076;2024-02-21T03:34:16;101466.28;;;6.06;96.37
60974;BME280;46846;51.528;5.076;2024-02-21T03:36:42;101468.91;;;6.09;96.33
60974;BME280;46846;51.528;5.076;2024-02-21T03:39:07;101451.31;;;6.08;96.36
60974;BME280;46846;51.528;5.076;2024-02-21T03:41:34;101446.91;;;6.02;97.11
60974;BME280;46846;51.528;5.076;2024-02-21T03:43:59;101454.84;;;6.01;97.03
60974;BME280;46846;51.528;5.076;2024-02-21T03:46:24;101442.53;;;6.00;96.90
60974;BME280;46846;51.528;5.076;2024-02-21T03:48:50;101449.56;;;6.04;96.92
60974;BME280;46846;51.528;5.076;2024-02-21T03:51:15;101441.63;;;5.99;96.60
60974;BME280;46846;51.528;5.076;2024-02-21T03:53:40;101434.59;;;6.00;96.85
60974;BME280;46846;51.528;5.076;2024-02-21T03:56:06;101433.69;;;5.98;96.75
60974;BME280;46846;51.528;5.076;2024-02-21T03:58:32;101434.59;;;5.98;97.26
60974;BME280;46846;51.528;5.076;2024-02-21T04:00:59;101437.22;;;5.98;96.75
60974;BME280;46846;51.528;5.076;2024-02-21T04:03:25;101439.00;;;6.02;97.00
60974;BME280;46846;51.528;5.076;2024-02-21T04:05:50;101442.53;;;6.03;96.75
60974;BME280;46846;51.528;5.076;2024-02-21T04:08:15;101441.63;;;6.02;96.83
60974;BME280;46846;51.528;5.076;2024-02-21T04:10:41;101437.22;;;6.00;96.96
60974;BME280;46846;51.528;5.076;2024-02-21T04:13:06;101439.00;;;6.04;96.55
60974;BME280;46846;51.528;5.076;2024-02-21T04:15:32;101438.13;;;6.04;96.53
60974;BME280;46846;51.528;5.076;2024-02-21T04:17:57;101424.03;;;5.98;97.05
60974;BME280;46846;51.528;5.076;2024-02-21T04:20:22;101435.44;;;6.00;97.19
60974;BME280;46846;51.528;5.076;2024-02-21T04:22:48;101438.97;;;5.99;97.21
60974;BME280;46846;51.528;5.076;2024-02-21T04:25:13;101434.59;;;5.98;97.19
60974;BME280;46846;51.528;5.076;2024-02-21T04:27:39;101431.09;;;5.96;97.22
60974;BME280;46846;51.528;5.076;2024-02-21T04:30:04;101431.06;;;5.99;96.42
60974;BME280;46846;51.528;5.076;2024-02-21T04:32:30;101433.69;;;6.02;97.05
60974;BME280;46846;51.528;5.076;2024-02-21T04:34:55;101434.59;;;6.03;97.09
60974;BME280;46846;51.528;5.076;2024-02-21T04:37:20;101431.06;;;6.04;96.71
60974;BME280;46846;51.528;5.076;2024-02-21T04:39:46;101432.84;;;6.02;96.98
60974;BME280;46846;51.528;5.076;2024-02-21T04:42:11;101431.06;;;5.99;97.02
60974;BME280;46846;51.528;5.076;2024-02-21T04:44:36;101431.06;;;5.98;96.72
60974;BME280;46846;51.528;5.076;2024-02-21T04:47:03;101429.31;;;6.00;96.94
60974;BME280;46846;51.528;5.076;2024-02-21T04:49:28;101420.50;;;5.99;96.64
60974;BME280;46846;51.528;5.076;2024-02-21T04:51:54;101417.00;;;5.97;97.25
60974;BME280;46846;51.528;5.076;2024-02-21T04:54:19;101409.94;;;5.99;96.99
60974;BME280;46846;51.528;5.076;2024-02-21T04:56:44;101408.16;;;6.01;96.87
60974;BME280;46846;51.528;5.076;2024-02-21T04:59:09;101402.00;;;6.02;96.34
60974;BME280;46846;51.528;5.076;2024-02-21T05:01:35;101402.00;;;6.04;96.46
60974;BME280;46846;51.528;5.076;2024-02-21T05:04:00;101402.00;;;6.04;96.30
60974;BME280;46846;51.528;5.076;2024-02-21T05:06:25;101401.13;;;6.04;96.92
60974;BME280;46846;51.528;5.076;2024-02-21T05:08:50;101405.53;;;6.03;96.69
60974;BME280;46846;51.528;5.076;2024-02-21T05:11:16;101396.72;;;6.04;96.90
60974;BME280;46846;51.528;5.076;2024-02-21T05:13:41;101400.25;;;6.05;96.67
60974;BME280;46846;51.528;5.076;2024-02-21T05:16:06;101387.94;;;6.04;96.38
60974;BME280;46846;51.528;5.076;2024-02-21T05:18:32;101379.13;;;6.03;96.47
60974;BME280;46846;51.528;5.076;2024-02-21T05:20:58;101372.09;;;6.02;96.87
60974;BME280;46846;51.528;5.076;2024-02-21T05:23:23;101363.25;;;6.03;96.39
60974;BME280;46846;51.528;5.076;2024-02-21T05:25:49;101362.38;;;6.01;96.45
60974;BME280;46846;51.528;5.076;2024-02-21T05:28:14;101360.63;;;6.03;96.25
60974;BME280;46846;51.528;5.076;2024-02-21T05:30:39;101360.59;;;6.08;96.49
60974;BME280;46846;51.528;5.076;2024-02-21T05:33:06;101357.94;;;6.06;96.27
60974;BME280;46846;51.528;5.076;2024-02-21T05:35:31;101351.81;;;6.04;96.28
60974;BME280;46846;51.528;5.076;2024-02-21T05:37:56;101350.06;;;6.00;96.45
60974;BME280;46846;51.528;5.076;2024-02-21T05:40:22;101345.66;;;5.97;96.96
60974;BME280;46846;51.528;5.076;2024-02-21T05:42:47;101341.25;;;5.99;96.59
60974;BME280;46846;51.528;5.076;2024-02-21T05:45:12;101340.38;;;5.99;96.95
60974;BME280;46846;51.528;5.076;2024-02-21T05:47:38;101336.84;;;5.98;96.45
60974;BME280;46846;51.528;5.076;2024-02-21T05:50:03;101346.53;;;5.98;96.57
60974;BME280;46846;51.528;5.076;2024-02-21T05:52:29;101344.78;;;5.98;96.33
60974;BME280;46846;51.528;5.076;2024-02-21T05:54:54;101343.00;;;6.00;96.56
60974;BME280;46846;51.528;5.076;2024-02-21T05:57:19;101341.25;;;6.01;96.89
60974;BME280;46846;51.528;5.076;2024-02-21T05:59:45;101335.97;;;5.99;96.38
60974;BME280;46846;51.528;5.076;2024-02-21T06:02:10;101328.91;;;6.05;96.34
60974;BME280;46846;51.528;5.076;2024-02-21T06:04:35;101322.75;;;6.02;96.86
60974;BME280;46846;51.528;5.076;2024-02-21T06:07:01;101309.53;;;6.01;96.19
60974;BME280;46846;51.528;5.076;2024-02-21T06:09:26;101308.69;;;6.02;96.59
60974;BME280;46846;51.528;5.076;2024-02-21T06:11:52;101299.88;;;6.00;96.78
60974;BME280;46846;51.528;5.076;2024-02-21T06:14:18;101303.41;;;5.99;96.29
60974;BME280;46846;51.528;5.076;2024-02-21T06:16:43;101307.75;;;6.01;96.35
60974;BME280;46846;51.528;5.076;2024-02-21T06:19:09;101303.41;;;6.02;96.45
60974;BME280;46846;51.528;5.076;2024-02-21T06:21:34;101298.09;;;6.04;96.26
60974;BME280;46846;51.528;5.076;2024-02-21T06:23:59;101295.47;;;6.04;96.55
60974;BME280;46846;51.528;5.076;2024-02-21T06:26:24;101293.69;;;6.02;96.14
60974;BME280;46846;51.528;5.076;2024-02-21T06:28:50;101305.16;;;6.00;96.51
60974;BME280;46846;51.528;5.076;2024-02-21T06:31:15;101301.63;;;6.02;96.41
60974;BME280;46846;51.528;5.076;2024-02-21T06:33:41;101300.75;;;6.02;96.48
60974;BME280;46846;51.528;5.076;2024-02-21T06:36:06;101306.00;;;6.08;96.35
60974;BME280;46846;51.528;5.076;2024-02-21T06:38:32;101309.53;;;6.07;96.57
60974;BME280;46846;51.528;5.076;2024-02-21T06:40:58;101306.91;;;6.04;96.01
60974;BME280;46846;51.528;5.076;2024-02-21T06:43:25;101308.66;;;6.00;96.66
60974;BME280;46846;51.528;5.076;2024-02-21T06:45:50;101309.53;;;6.02;96.41
60974;BME280;46846;51.528;5.076;2024-02-21T06:48:16;101316.56;;;6.00;96.64
60974;BME280;46846;51.528;5.076;2024-02-21T06:50:42;101313.06;;;5.98;96.31
60974;BME280;46846;51.528;5.076;2024-02-21T06:53:07;101307.75;;;6.01;96.55
60974;BME280;46846;51.528;5.076;2024-02-21T06:55:32;101304.25;;;6.02;96.22
60974;BME280;46846;51.528;5.076;2024-02-21T06:57:57;101298.97;;;6.02;96.18
60974;BME280;46846;51.528;5.076;2024-02-21T07:00:23;101289.25;;;6.01;96.00
60974;BME280;46846;51.528;5.076;2024-02-21T07:02:48;101297.19;;;6.01;96.27
60974;BME280;46846;51.528;5.076;2024-02-21T07:05:14;101284.91;;;6.02;96.26
60974;BME280;46846;51.528;5.076;2024-02-21T07:07:39;101284.91;;;6.02;96.03
60974;BME280;46846;51.528;5.076;2024-02-21T07:10:05;101284.00;;;6.00;96.21
60974;BME280;46846;51.528;5.076;2024-02-21T07:12:31;101287.53;;;6.02;96.19
60974;BME280;46846;51.528;5.076;2024-02-21T07:14:56;101283.13;;;5.99;96.65
60974;BME280;46846;51.528;5.076;2024-02-21T07:17:21;101276.94;;;6.00;96.00
60974;BME280;46846;51.528;5.076;2024-02-21T07:19:46;101277.84;;;6.01;96.22
60974;BME280;46846;51.528;5.076;2024-02-21T07:22:12;101284.88;;;6.00;96.41
60974;BME280;46846;51.528;5.076;2024-02-21T07:24:37;101272.53;;;6.04;96.21
60974;BME280;46846;51.528;5.076;2024-02-21T07:27:02;101268.13;;;6.06;96.32
60974;BME280;46846;51.528;5.076;2024-02-21T07:29:29;101270.75;;;6.06;96.22
60974;BME280;46846;51.528;5.076;2024-02-21T07:31:55;101265.47;;;6.08;96.17
60974;BME280;46846;51.528;5.076;2024-02-21T07:34:20;101267.22;;;6.10;96.29
60974;BME280;46846;51.528;5.076;2024-02-21T07:36:46;101265.47;;;6.06;96.34
60974;BME280;46846;51.528;5.076;2024-02-21T07:39:11;101257.53;;;6.08;95.91
60974;BME280;46846;51.528;5.076;2024-02-21T07:41:36;101243.47;;;6.07;96.14
60974;BME280;46846;51.528;5.076;2024-02-21T07:44:03;101238.19;;;6.07;95.85
60974;BME280;46846;51.528;5.076;2024-02-21T07:46:28;101229.38;;;6.05;96.26
60974;BME280;46846;51.528;5.076;2024-02-21T07:48:54;101223.25;;;6.05;96.03
60974;BME280;46846;51.528;5.076;2024-02-21T07:51:19;101218.84;;;6.02;96.37
60974;BME280;46846;51.528;5.076;2024-02-21T07:53:44;101223.25;;;6.03;96.43
60974;BME280;46846;51.528;5.076;2024-02-21T07:56:11;101223.25;;;6.03;96.07
60974;BME280;46846;51.528;5.076;2024-02-21T07:58:36;101217.97;;;6.00;96.35
60974;BME280;46846;51.528;5.076;2024-02-21T08:01:01;101217.09;;;5.98;96.28
60974;BME280;46846;51.528;5.076;2024-02-21T08:03:26;101208.28;;;6.02;96.54
60974;BME280;46846;51.528;5.076;2024-02-21T08:05:52;101214.44;;;6.01;96.55
60974;BME280;46846;51.528;5.076;2024-02-21T08:08:17;101204.72;;;6.01;96.35
60974;BME280;46846;51.528;5.076;2024-02-21T08:10:45;101199.47;;;6.00;96.24
60974;BME280;46846;51.528;5.076;2024-02-21T08:13:10;101195.94;;;6.01;96.53
60974;BME280;46846;51.528;5.076;2024-02-21T08:15:35;101190.66;;;6.01;96.02
60974;BME280;46846;51.528;5.076;2024-02-21T08:18:00;101189.78;;;6.00;96.10
60974;BME280;46846;51.528;5.076;2024-02-21T08:20:27;101179.22;;;6.02;96.09
60974;BME280;46846;51.528;5.076;2024-02-21T08:22:52;101175.72;;;5.98;96.51
60974;BME280;46846;51.528;5.076;2024-02-21T08:25:17;101174.81;;;6.01;96.49
60974;BME280;46846;51.528;5.076;2024-02-21T08:27:42;101169.50;;;6.04;96.31
60974;BME280;46846;51.528;5.076;2024-02-21T08:30:08;101165.13;;;6.05;96.01
60974;BME280;46846;51.528;5.076;2024-02-21T08:32:33;101158.94;;;6.04;95.67
60974;BME280;46846;51.528;5.076;2024-02-21T08:35:01;101150.19;;;6.02;95.93
60974;BME280;46846;51.528;5.076;2024-02-21T08:37:27;101152.81;;;6.04;95.96
60974;BME280;46846;51.528;5.076;2024-02-21T08:39:52;101149.28;;;6.03;96.09
60974;BME280;46846;51.528;5.076;2024-02-21T08:42:17;101144.88;;;6.00;96.38
60974;BME280;46846;51.528;5.076;2024-02-21T08:44:42;101144.88;;;6.02;96.37
60974;BME280;46846;51.528;5.076;2024-02-21T08:47:08;101131.66;;;6.00;96.35
60974;BME280;46846;51.528;5.076;2024-02-21T08:49:35;101131.69;;;6.02;95.65
60974;BME280;46846;51.528;5.076;2024-02-21T08:52:00;101132.56;;;5.98;96.14
60974;BME280;46846;51.528;5.076;2024-02-21T08:54:25;101122.88;;;5.97;96.36
60974;BME280;46846;51.528;5.076;2024-02-21T08:56:51;101114.13;;;5.95;96.64
60974;BME280;46846;51.528;5.076;2024-02-21T08:59:16;101119.41;;;5.95;96.15
60974;BME280;46846;51.528;5.076;2024-02-21T09:01:41;101127.38;;;5.92;96.28
60974;BME280;46846;51.528;5.076;2024-02-21T09:04:07;101126.44;;;5.96;96.47
60974;BME280;46846;51.528;5.076;2024-02-21T09:06:32;101114.06;;;5.99;96.53
60974;BME280;46846;51.528;5.076;2024-02-21T09:08:58;101118.50;;;5.99;96.22
60974;BME280;46846;51.528;5.076;2024-02-21T09:11:24;101109.72;;;5.95;96.03
60974;BME280;46846;51.528;5.076;2024-02-21T09:13:49;101107.94;;;5.96;96.25
60974;BME280;46846;51.528;5.076;2024-02-21T09:16:14;101106.19;;;5.96;96.41
60974;BME280;46846;51.528;5.076;2024-02-21T09:18:40;101100.91;;;5.96;96.33
60974;BME280;46846;51.528;5.076;2024-02-21T09:21:05;101098.25;;;5.95;96.40
60974;BME280;46846;51.528;5.076;2024-02-21T09:23:30;101093.88;;;5.95;96.53
60974;BME280;46846;51.528;5.076;2024-02-21T09:25:56;101093.84;;;5.97;96.73
60974;BME280;46846;51.528;5.076;2024-02-21T09:28:22;101089.44;;;5.94;96.67
60974;BME280;46846;51.528;5.076;2024-02-21T09:30:47;101085.00;;;5.98;96.76
60974;BME280;46846;51.528;5.076;2024-02-21T09:33:13;101077.97;;;5.97;96.64
60974;BME280;46846;51.528;5.076;2024-02-21T09:35:38;101070.06;;;5.97;96.87
60974;BME280;46846;51.528;5.076;2024-02-21T09:38:04;101055.09;;;5.96;96.31
60974;BME280;46846;51.528;5.076;2024-02-21T09:40:29;101052.44;;;5.99;96.34
60974;BME280;46846;51.528;5.076;2024-02-21T09:42:59;101055.06;;;6.02;96.70
60974;BME280;46846;51.528;5.076;2024-02-21T09:45:27;101039.16;;;6.07;96.40
60974;BME280;46846;51.528;5.076;2024-02-21T09:48:00;101034.81;;;6.01;96.61
60974;BME280;46846;51.528;5.076;2024-02-21T09:50:31;101024.19;;;6.07;96.01
60974;BME280;46846;51.528;5.076;2024-02-21T09:52:59;101025.13;;;6.00;96.86
60974;BME280;46846;51.528;5.076;2024-02-21T09:55:27;101013.59;;;6.09;96.44
60974;BME280;46846;51.528;5.076;2024-02-21T09:57:52;101004.88;;;6.02;96.61
60974;BME280;46846;51.528;5.076;2024-02-21T10:00:18;100990.75;;;6.05;96.51
60974;BME280;46846;51.528;5.076;2024-02-21T10:02:47;100984.63;;;6.01;96.47
60974;BME280;46846;51.528;5.076;2024-02-21T10:05:12;100982.00;;;5.98;96.99
60974;BME280;46846;51.528;5.076;2024-02-21T10:07:38;100989.09;;;5.94;96.93
60974;BME280;46846;51.528;5.076;2024-02-21T10:10:04;100979.34;;;5.98;96.76
60974;BME280;46846;51.528;5.076;2024-02-21T10:12:30;100974.94;;;6.00;97.04
60974;BME280;46846;51.528;5.076;2024-02-21T10:15:05;100969.63;;;6.01;96.48
60974;BME280;46846;51.528;5.076;2024-02-21T10:17:31;100952.97;;;5.96;97.05
60974;BME280;46846;51.528;5.076;2024-02-21T10:20:06;100940.56;;;6.01;97.10
60974;BME280;46846;51.528;5.076;2024-02-21T10:22:31;100933.53;;;6.00;96.83
60974;BME280;46846;51.528;5.076;2024-02-21T10:25:10;100924.66;;;6.09;96.42
60974;BME280;46846;51.528;5.076;2024-02-21T10:27:36;100892.94;;;6.09;96.53
60974;BME280;46846;51.528;5.076;2024-02-21T10:30:01;100883.28;;;6.08;96.22
60974;BME280;46846;51.528;5.076;2024-02-21T10:32:27;100864.69;;;6.14;96.47
60974;BME280;46846;51.528;5.076;2024-02-21T10:35:00;100857.63;;;6.17;95.86
60974;BME280;46846;51.528;5.076;2024-02-21T10:37:26;100890.31;;;6.09;96.43
60974;BME280;46846;51.528;5.076;2024-02-21T10:39:51;100870.91;;;6.10;96.48
60974;BME280;46846;51.528;5.076;2024-02-21T10:42:16;100879.59;;;6.17;96.30
60974;BME280;46846;51.528;5.076;2024-02-21T10:44:46;100885.00;;;6.11;96.27
60974;BME280;46846;51.528;5.076;2024-02-21T10:47:15;100890.28;;;6.11;96.32
60974;BME280;46846;51.528;5.076;2024-02-21T10:49:46;100884.19;;;6.07;96.90
60974;BME280;46846;51.528;5.076;2024-02-21T10:57:06;100884.13;;;6.10;96.91
60974;BME280;46846;51.528;5.076;2024-02-21T10:59:33;100883.34;;;6.04;96.74
60974;BME280;46846;51.528;5.076;2024-02-21T11:01:59;100878.06;;;6.04;97.22
60974;BME280;46846;51.528;5.076;2024-02-21T11:04:24;100870.16;;;6.02;97.21
60974;BME280;46846;51.528;5.076;2024-02-21T11:06:50;100864.91;;;5.99;97.27
60974;BME280;46846;51.528;5.076;2024-02-21T11:09:16;100857.78;;;6.04;96.95
60974;BME280;46846;51.528;5.076;2024-02-21T11:11:43;100841.88;;;6.09;97.40
60974;BME280;46846;51.528;5.076;2024-02-21T11:14:09;100836.56;;;6.10;96.74
60974;BME280;46846;51.528;5.076;2024-02-21T11:16:35;100847.19;;;6.07;97.26
60974;BME280;46846;51.528;5.076;2024-02-21T11:19:07;100843.66;;;6.08;97.23
60974;BME280;46846;51.528;5.076;2024-02-21T11:21:33;100842.75;;;6.09;97.60
60974;BME280;46846;51.528;5.076;2024-02-21T11:23:59;100841.84;;;6.10;97.20
60974;BME280;46846;51.528;5.076;2024-02-21T11:26:27;100851.53;;;6.11;97.11
60974;BME280;46846;51.528;5.076;2024-02-21T11:28:59;100842.69;;;6.12;97.26
60974;BME280;46846;51.528;5.076;2024-02-21T11:31:25;100826.00;;;6.10;96.99
60974;BME280;46846;51.528;5.076;2024-02-21T11:33:52;100825.94;;;6.13;97.50
60974;BME280;46846;51.528;5.076;2024-02-21T11:36:24;100792.41;;;6.17;97.17
60974;BME280;46846;51.528;5.076;2024-02-21T11:38:50;100782.72;;;6.18;97.78
60974;BME280;46846;51.528;5.076;2024-02-21T11:41:15;100783.63;;;6.17;97.94
60974;BME280;46846;51.528;5.076;2024-02-21T11:43:41;100760.69;;;6.19;97.73
60974;BME280;46846;51.528;5.076;2024-02-21T11:46:06;100758.03;;;6.22;97.63
60974;BME280;46846;51.528;5.076;2024-02-21T11:48:32;100758.03;;;6.22;98.02
60974;BME280;46846;51.528;5.076;2024-02-21T11:50:57;100758.84;;;6.24;98.23
60974;BME280;46846;51.528;5.076;2024-02-21T11:53:23;100744.66;;;6.28;97.66
60974;BME280;46846;51.528;5.076;2024-02-21T11:55:49;100731.41;;;6.33;97.45
60974;BME280;46846;51.528;5.076;2024-02-21T11:58:15;100720.06;;;6.26;97.77
60974;BME280;46846;51.528;5.076;2024-02-21T12:00:40;100720.00;;;6.29;98.22
60974;BME280;46846;51.528;5.076;2024-02-21T12:03:05;100710.31;;;6.28;97.82
60974;BME280;46846;51.528;5.076;2024-02-21T12:05:31;100696.19;;;6.31;97.91
60974;BME280;46846;51.528;5.076;2024-02-21T12:07:57;100695.34;;;6.28;98.42
60974;BME280;46846;51.528;5.076;2024-02-21T12:10:23;100685.59;;;6.31;98.08
60974;BME280;46846;51.528;5.076;2024-02-21T12:12:48;100682.13;;;6.28;98.53
60974;BME280;46846;51.528;5.076;2024-02-21T12:15:16;100678.56;;;6.31;98.34
60974;BME280;46846;51.528;5.076;2024-02-21T12:17:43;100677.59;;;6.35;98.58
60974;BME280;46846;51.528;5.076;2024-02-21T12:20:08;100673.16;;;6.37;98.16
60974;BME280;46846;51.528;5.076;2024-02-21T12:22:37;100669.63;;;6.37;98.44
60974;BME280;46846;51.528;5.076;2024-02-21T12:25:24;100663.53;;;6.33;98.29
60974;BME280;46846;51.528;5.076;2024-02-21T12:27:51;100659.75;;;6.47;97.04
60974;BME280;46846;51.528;5.076;2024-02-21T12:30:16;100647.38;;;6.49;97.25
60974;BME280;46846;51.528;5.076;2024-02-21T12:32:41;100641.16;;;6.51;97.02
60974;BME280;46846;51.528;5.076;2024-02-21T12:35:07;100625.22;;;6.54;97.11
60974;BME280;46846;51.528;5.076;2024-02-21T12:37:33;100599.66;;;6.56;96.93
60974;BME280;46846;51.528;5.076;2024-02-21T12:39:58;100576.59;;;6.62;97.21
60974;BME280;46846;51.528;5.076;2024-02-21T12:42:23;100573.09;;;6.61;97.41
60974;BME280;46846;51.528;5.076;2024-02-21T12:44:51;100577.50;;;6.61;97.32
60974;BME280;46846;51.528;5.076;2024-02-21T12:47:16;100575.78;;;6.60;97.71
60974;BME280;46846;51.528;5.076;2024-02-21T12:49:43;100572.28;;;6.57;98.08
60974;BME280;46846;51.528;5.076;2024-02-21T12:52:08;100565.16;;;6.61;97.76
60974;BME280;46846;51.528;5.076;2024-02-21T12:54:34;100572.31;;;6.56;97.95
60974;BME280;46846;51.528;5.076;2024-02-21T12:56:59;100579.28;;;6.60;97.83